sensor_id;sensor_type;location;lat;lon;timestamp;P1;durP1;ratioP1;P2;durP2;ratioP2
21095;SDS011;10706;49.036;12.112;2022-10-16T00:02:01;11.65;;;4.30;;
21095;SDS011;10706;49.036;12.112;2022-10-16T00:04:27;11.73;;;4.28;;
21095;SDS011;10706;49.036;12.112;2022-10-16T00:06:52;9.77;;;4.50;;
21095;SDS011;10706;49.036;12.112;2022-10-16T00:09:18;14.15;;;4.80;;
21095;SDS011;10706;49.036;12.112;2022-10-16T00:11:44;9.75;;;4.57;;
21095;SDS011;10706;49.036;12.112;2022-10-16T00:14:11;8.75;;;4.25;;
21095;SDS011;10706;49.036;12.112;2022-10-16T00:16:39;8.10;;;4.13;;
21095;SDS011;10706;49.036;12.112;2022-10-16T00:19:05;11.85;;;4.78;;
21095;SDS011;10706;49.036;12.112;2022-10-16T00:21:32;11.77;;;4.18;;
21095;SDS011;10706;49.036;12.112;2022-10-16T00:24:00;10.05;;;3.80;;
21095;SDS011;10706;49.036;12.112;2022-10-16T00:26:30;10.05;;;4.30;;
21095;SDS011;10706;49.036;12.112;2022-10-16T00:29:00;9.45;;;3.63;;
21095;SDS011;10706;49.036;12.112;2022-10-16T00:31:27;9.57;;;3.60;;
21095;SDS011;10706;49.036;12.112;2022-10-16T00:33:53;13.00;;;4.07;;
21095;SDS011;10706;49.036;12.112;2022-10-16T00:36:20;11.60;;;3.80;;
21095;SDS011;10706;49.036;12.112;2022-10-16T00:38:52;9.27;;;4.22;;
21095;SDS011;10706;49.036;12.112;2022-10-16T00:41:20;11.63;;;3.83;;
21095;SDS011;10706;49.036;12.112;2022-10-16T00:43:49;12.23;;;4.03;;
21095;SDS011;10706;49.036;12.112;2022-10-16T00:46:22;9.18;;;3.50;;
21095;SDS011;10706;49.036;12.112;2022-10-16T00:51:42;9.68;;;3.60;;
21095;SDS011;10706;49.036;12.112;2022-10-16T00:54:31;7.95;;;3.40;;
21095;SDS011;10706;49.036;12.112;2022-10-16T00:56:58;9.45;;;3.60;;
21095;SDS011;10706;49.036;12.112;2022-10-16T00:59:32;5.97;;;3.25;;
21095;SDS011;10706;49.036;12.112;2022-10-16T01:02:06;13.23;;;4.30;;
21095;SDS011;10706;49.036;12.112;2022-10-16T01:04:57;9.10;;;3.88;;
21095;SDS011;10706;49.036;12.112;2022-10-16T01:13:27;9.35;;;3.92;;
21095;SDS011;10706;49.036;12.112;2022-10-16T01:16:06;12.73;;;4.40;;
21095;SDS011;10706;49.036;12.112;2022-10-16T01:18:43;10.15;;;4.65;;
21095;SDS011;10706;49.036;12.112;2022-10-16T01:21:25;15.32;;;4.70;;
21095;SDS011;10706;49.036;12.112;2022-10-16T01:24:08;17.38;;;4.90;;
21095;SDS011;10706;49.036;12.112;2022-10-16T01:27:02;12.88;;;4.88;;
21095;SDS011;10706;49.036;12.112;2022-10-16T01:29:53;11.05;;;4.78;;
21095;SDS011;10706;49.036;12.112;2022-10-16T01:32:45;13.20;;;4.97;;
21095;SDS011;10706;49.036;12.112;2022-10-16T01:35:25;17.67;;;5.38;;
21095;SDS011;10706;49.036;12.112;2022-10-16T01:38:14;11.82;;;5.28;;
21095;SDS011;10706;49.036;12.112;2022-10-16T01:40:51;13.52;;;4.85;;
21095;SDS011;10706;49.036;12.112;2022-10-16T01:43:33;12.23;;;4.65;;
21095;SDS011;10706;49.036;12.112;2022-10-16T01:46:08;10.90;;;4.72;;
21095;SDS011;10706;49.036;12.112;2022-10-16T01:48:38;11.20;;;4.85;;
21095;SDS011;10706;49.036;12.112;2022-10-16T01:51:11;13.38;;;4.90;;
21095;SDS011;10706;49.036;12.112;2022-10-16T01:53:40;14.50;;;5.05;;
21095;SDS011;10706;49.036;12.112;2022-10-16T01:56:10;14.55;;;5.13;;
21095;SDS011;10706;49.036;12.112;2022-10-16T01:58:42;14.73;;;4.82;;
21095;SDS011;10706;49.036;12.112;2022-10-16T02:01:16;10.93;;;4.63;;
21095;SDS011;10706;49.036;12.112;2022-10-16T02:03:46;13.32;;;4.90;;
21095;SDS011;10706;49.036;12.112;2022-10-16T02:06:18;12.57;;;5.20;;
21095;SDS011;10706;49.036;12.112;2022-10-16T02:08:45;15.25;;;5.00;;
21095;SDS011;10706;49.036;12.112;2022-10-16T02:11:11;12.25;;;5.38;;
21095;SDS011;10706;49.036;12.112;2022-10-16T02:13:44;14.70;;;6.22;;
21095;SDS011;10706;49.036;12.112;2022-10-16T02:16:15;13.70;;;5.50;;
21095;SDS011;10706;49.036;12.112;2022-10-16T02:18:42;13.88;;;5.57;;
21095;SDS011;10706;49.036;12.112;2022-10-16T02:21:14;16.33;;;6.13;;
21095;SDS011;10706;49.036;12.112;2022-10-16T02:23:56;11.93;;;5.20;;
21095;SDS011;10706;49.036;12.112;2022-10-16T02:27:33;12.50;;;5.32;;
21095;SDS011;10706;49.036;12.112;2022-10-16T02:29:58;12.57;;;5.13;;
21095;SDS011;10706;49.036;12.112;2022-10-16T02:32:39;15.13;;;6.03;;
21095;SDS011;10706;49.036;12.112;2022-10-16T02:35:08;12.73;;;5.35;;
21095;SDS011;10706;49.036;12.112;2022-10-16T02:37:35;13.50;;;5.35;;
21095;SDS011;10706;49.036;12.112;2022-10-16T02:40:03;13.55;;;5.68;;
21095;SDS011;10706;49.036;12.112;2022-10-16T02:42:37;11.95;;;5.07;;
21095;SDS011;10706;49.036;12.112;2022-10-16T02:45:05;14.90;;;5.50;;
21095;SDS011;10706;49.036;12.112;2022-10-16T02:47:34;12.00;;;5.30;;
21095;SDS011;10706;49.036;12.112;2022-10-16T02:50:00;14.75;;;6.25;;
21095;SDS011;10706;49.036;12.112;2022-10-16T02:52:26;18.05;;;4.93;;
21095;SDS011;10706;49.036;12.112;2022-10-16T02:54:52;18.25;;;4.95;;
21095;SDS011;10706;49.036;12.112;2022-10-16T02:57:17;12.50;;;4.78;;
21095;SDS011;10706;49.036;12.112;2022-10-16T02:59:43;15.85;;;5.40;;
21095;SDS011;10706;49.036;12.112;2022-10-16T03:02:10;11.98;;;4.63;;
21095;SDS011;10706;49.036;12.112;2022-10-16T03:04:36;13.55;;;4.90;;
21095;SDS011;10706;49.036;12.112;2022-10-16T03:07:02;13.02;;;5.15;;
21095;SDS011;10706;49.036;12.112;2022-10-16T03:09:28;15.15;;;5.00;;
21095;SDS011;10706;49.036;12.112;2022-10-16T03:11:54;12.77;;;4.60;;
21095;SDS011;10706;49.036;12.112;2022-10-16T03:14:20;10.85;;;5.13;;
21095;SDS011;10706;49.036;12.112;2022-10-16T03:16:46;11.80;;;4.75;;
21095;SDS011;10706;49.036;12.112;2022-10-16T03:19:12;10.55;;;4.70;;
21095;SDS011;10706;49.036;12.112;2022-10-16T03:21:37;13.68;;;4.90;;
21095;SDS011;10706;49.036;12.112;2022-10-16T03:24:04;14.57;;;4.85;;
21095;SDS011;10706;49.036;12.112;2022-10-16T03:26:30;8.35;;;4.28;;
21095;SDS011;10706;49.036;12.112;2022-10-16T03:28:55;13.15;;;4.90;;
21095;SDS011;10706;49.036;12.112;2022-10-16T03:31:21;15.98;;;5.18;;
21095;SDS011;10706;49.036;12.112;2022-10-16T03:33:47;12.02;;;5.07;;
21095;SDS011;10706;49.036;12.112;2022-10-16T03:36:13;12.27;;;4.68;;
21095;SDS011;10706;49.036;12.112;2022-10-16T03:38:38;12.27;;;5.25;;
21095;SDS011;10706;49.036;12.112;2022-10-16T03:41:04;14.45;;;5.18;;
21095;SDS011;10706;49.036;12.112;2022-10-16T03:43:32;12.23;;;5.22;;
21095;SDS011;10706;49.036;12.112;2022-10-16T03:45:58;11.30;;;4.70;;
21095;SDS011;10706;49.036;12.112;2022-10-16T03:48:24;10.52;;;4.78;;
21095;SDS011;10706;49.036;12.112;2022-10-16T03:50:50;11.05;;;4.45;;
21095;SDS011;10706;49.036;12.112;2022-10-16T03:53:16;11.10;;;5.00;;
21095;SDS011;10706;49.036;12.112;2022-10-16T03:55:42;11.98;;;5.32;;
21095;SDS011;10706;49.036;12.112;2022-10-16T03:58:09;13.10;;;5.40;;
21095;SDS011;10706;49.036;12.112;2022-10-16T04:00:35;12.32;;;4.97;;
21095;SDS011;10706;49.036;12.112;2022-10-16T04:03:05;10.70;;;5.03;;
21095;SDS011;10706;49.036;12.112;2022-10-16T04:05:31;13.25;;;5.15;;
21095;SDS011;10706;49.036;12.112;2022-10-16T04:07:57;12.02;;;5.18;;
21095;SDS011;10706;49.036;12.112;2022-10-16T04:10:22;17.52;;;6.13;;
21095;SDS011;10706;49.036;12.112;2022-10-16T04:12:48;12.57;;;5.82;;
21095;SDS011;10706;49.036;12.112;2022-10-16T04:15:14;12.43;;;5.03;;
21095;SDS011;10706;49.036;12.112;2022-10-16T04:17:40;11.77;;;5.47;;
21095;SDS011;10706;49.036;12.112;2022-10-16T04:20:05;17.55;;;5.65;;
21095;SDS011;10706;49.036;12.112;2022-10-16T04:22:32;11.88;;;5.78;;
21095;SDS011;10706;49.036;12.112;2022-10-16T04:24:57;12.32;;;5.43;;
21095;SDS011;10706;49.036;12.112;2022-10-16T04:27:23;12.05;;;5.55;;
21095;SDS011;10706;49.036;12.112;2022-10-16T04:29:49;14.50;;;6.05;;
21095;SDS011;10706;49.036;12.112;2022-10-16T04:32:15;16.77;;;6.35;;
21095;SDS011;10706;49.036;12.112;2022-10-16T04:34:41;13.75;;;5.82;;
21095;SDS011;10706;49.036;12.112;2022-10-16T04:37:07;13.20;;;5.70;;
21095;SDS011;10706;49.036;12.112;2022-10-16T04:39:33;13.60;;;6.25;;
21095;SDS011;10706;49.036;12.112;2022-10-16T04:41:58;12.85;;;6.18;;
21095;SDS011;10706;49.036;12.112;2022-10-16T04:44:24;15.48;;;6.45;;
21095;SDS011;10706;49.036;12.112;2022-10-16T04:46:50;14.48;;;6.13;;
21095;SDS011;10706;49.036;12.112;2022-10-16T04:49:16;14.05;;;5.65;;
21095;SDS011;10706;49.036;12.112;2022-10-16T04:51:42;13.63;;;5.50;;
21095;SDS011;10706;49.036;12.112;2022-10-16T04:54:09;15.18;;;5.95;;
21095;SDS011;10706;49.036;12.112;2022-10-16T04:56:35;15.60;;;5.88;;
21095;SDS011;10706;49.036;12.112;2022-10-16T04:59:08;14.98;;;6.38;;
21095;SDS011;10706;49.036;12.112;2022-10-16T05:01:34;16.63;;;5.90;;
21095;SDS011;10706;49.036;12.112;2022-10-16T05:04:00;16.70;;;5.93;;
21095;SDS011;10706;49.036;12.112;2022-10-16T05:06:26;16.25;;;6.43;;
21095;SDS011;10706;49.036;12.112;2022-10-16T05:08:52;16.50;;;6.30;;
21095;SDS011;10706;49.036;12.112;2022-10-16T05:11:18;14.10;;;6.00;;
21095;SDS011;10706;49.036;12.112;2022-10-16T05:13:43;14.48;;;6.20;;
21095;SDS011;10706;49.036;12.112;2022-10-16T05:16:09;14.63;;;6.78;;
21095;SDS011;10706;49.036;12.112;2022-10-16T05:18:35;16.38;;;6.88;;
21095;SDS011;10706;49.036;12.112;2022-10-16T05:21:00;18.13;;;8.98;;
21095;SDS011;10706;49.036;12.112;2022-10-16T05:23:26;17.33;;;6.97;;
21095;SDS011;10706;49.036;12.112;2022-10-16T05:25:53;19.10;;;7.30;;
21095;SDS011;10706;49.036;12.112;2022-10-16T05:28:20;21.27;;;7.22;;
21095;SDS011;10706;49.036;12.112;2022-10-16T05:30:46;15.48;;;7.30;;
21095;SDS011;10706;49.036;12.112;2022-10-16T05:33:12;14.43;;;7.30;;
21095;SDS011;10706;49.036;12.112;2022-10-16T05:35:38;16.63;;;7.00;;
21095;SDS011;10706;49.036;12.112;2022-10-16T05:38:04;18.92;;;7.93;;
21095;SDS011;10706;49.036;12.112;2022-10-16T05:40:29;15.63;;;7.57;;
21095;SDS011;10706;49.036;12.112;2022-10-16T05:42:55;17.80;;;7.75;;
21095;SDS011;10706;49.036;12.112;2022-10-16T05:45:21;15.13;;;7.80;;
21095;SDS011;10706;49.036;12.112;2022-10-16T05:47:46;17.77;;;7.85;;
21095;SDS011;10706;49.036;12.112;2022-10-16T05:50:12;18.35;;;7.40;;
21095;SDS011;10706;49.036;12.112;2022-10-16T05:52:38;15.95;;;6.80;;
21095;SDS011;10706;49.036;12.112;2022-10-16T05:55:04;18.17;;;7.97;;
21095;SDS011;10706;49.036;12.112;2022-10-16T05:57:31;14.63;;;6.93;;
21095;SDS011;10706;49.036;12.112;2022-10-16T05:59:56;16.48;;;7.15;;
21095;SDS011;10706;49.036;12.112;2022-10-16T06:02:22;18.02;;;7.45;;
21095;SDS011;10706;49.036;12.112;2022-10-16T06:04:48;15.60;;;6.30;;
21095;SDS011;10706;49.036;12.112;2022-10-16T06:07:13;17.15;;;7.53;;
21095;SDS011;10706;49.036;12.112;2022-10-16T06:09:39;21.42;;;7.00;;
21095;SDS011;10706;49.036;12.112;2022-10-16T06:12:05;16.20;;;6.97;;
21095;SDS011;10706;49.036;12.112;2022-10-16T06:14:31;16.90;;;7.05;;
21095;SDS011;10706;49.036;12.112;2022-10-16T06:16:56;16.13;;;7.13;;
21095;SDS011;10706;49.036;12.112;2022-10-16T06:19:22;15.73;;;6.85;;
21095;SDS011;10706;49.036;12.112;2022-10-16T06:21:48;16.27;;;6.70;;
21095;SDS011;10706;49.036;12.112;2022-10-16T06:24:14;14.95;;;6.78;;
21095;SDS011;10706;49.036;12.112;2022-10-16T06:26:40;18.73;;;6.45;;
21095;SDS011;10706;49.036;12.112;2022-10-16T06:29:05;17.35;;;6.82;;
21095;SDS011;10706;49.036;12.112;2022-10-16T06:31:31;15.05;;;6.50;;
21095;SDS011;10706;49.036;12.112;2022-10-16T06:33:58;17.88;;;6.47;;
21095;SDS011;10706;49.036;12.112;2022-10-16T06:36:24;16.00;;;7.75;;
21095;SDS011;10706;49.036;12.112;2022-10-16T06:38:51;15.63;;;7.07;;
21095;SDS011;10706;49.036;12.112;2022-10-16T06:41:18;16.80;;;6.68;;
21095;SDS011;10706;49.036;12.112;2022-10-16T06:43:46;19.20;;;7.43;;
21095;SDS011;10706;49.036;12.112;2022-10-16T06:46:14;17.63;;;7.43;;
21095;SDS011;10706;49.036;12.112;2022-10-16T06:48:44;17.77;;;7.65;;
21095;SDS011;10706;49.036;12.112;2022-10-16T06:51:11;16.55;;;7.18;;
21095;SDS011;10706;49.036;12.112;2022-10-16T06:53:43;15.85;;;7.35;;
21095;SDS011;10706;49.036;12.112;2022-10-16T06:56:15;15.70;;;7.35;;
21095;SDS011;10706;49.036;12.112;2022-10-16T06:58:49;14.88;;;7.15;;
21095;SDS011;10706;49.036;12.112;2022-10-16T07:01:17;15.55;;;7.35;;
21095;SDS011;10706;49.036;12.112;2022-10-16T07:03:46;16.20;;;6.80;;
21095;SDS011;10706;49.036;12.112;2022-10-16T07:06:16;15.43;;;6.75;;
21095;SDS011;10706;49.036;12.112;2022-10-16T07:08:45;18.33;;;7.20;;
21095;SDS011;10706;49.036;12.112;2022-10-16T07:11:13;15.45;;;6.88;;
21095;SDS011;10706;49.036;12.112;2022-10-16T07:13:42;14.68;;;6.97;;
21095;SDS011;10706;49.036;12.112;2022-10-16T07:18:37;17.40;;;6.25;;
21095;SDS011;10706;49.036;12.112;2022-10-16T07:21:08;14.32;;;6.80;;
21095;SDS011;10706;49.036;12.112;2022-10-16T07:23:36;15.00;;;5.80;;
21095;SDS011;10706;49.036;12.112;2022-10-16T07:26:03;13.20;;;5.53;;
21095;SDS011;10706;49.036;12.112;2022-10-16T07:28:30;12.88;;;5.57;;
21095;SDS011;10706;49.036;12.112;2022-10-16T07:31:07;12.43;;;5.25;;
21095;SDS011;10706;49.036;12.112;2022-10-16T07:33:37;11.38;;;5.00;;
21095;SDS011;10706;49.036;12.112;2022-10-16T07:36:04;12.60;;;5.38;;
21095;SDS011;10706;49.036;12.112;2022-10-16T07:38:30;13.88;;;5.47;;
21095;SDS011;10706;49.036;12.112;2022-10-16T07:40:59;13.48;;;5.40;;
21095;SDS011;10706;49.036;12.112;2022-10-16T07:43:30;12.18;;;5.63;;
21095;SDS011;10706;49.036;12.112;2022-10-16T07:45:56;11.90;;;4.70;;
21095;SDS011;10706;49.036;12.112;2022-10-16T07:48:23;11.63;;;5.88;;
21095;SDS011;10706;49.036;12.112;2022-10-16T07:50:56;10.45;;;4.82;;
21095;SDS011;10706;49.036;12.112;2022-10-16T07:53:26;11.27;;;4.95;;
21095;SDS011;10706;49.036;12.112;2022-10-16T07:56:03;12.75;;;4.80;;
21095;SDS011;10706;49.036;12.112;2022-10-16T07:58:31;15.95;;;4.13;;
21095;SDS011;10706;49.036;12.112;2022-10-16T08:00:58;10.30;;;4.22;;
21095;SDS011;10706;49.036;12.112;2022-10-16T08:03:24;12.55;;;4.30;;
21095;SDS011;10706;49.036;12.112;2022-10-16T08:05:50;11.75;;;3.88;;
21095;SDS011;10706;49.036;12.112;2022-10-16T08:08:17;12.15;;;4.18;;
21095;SDS011;10706;49.036;12.112;2022-10-16T08:10:44;13.20;;;4.57;;
21095;SDS011;10706;49.036;12.112;2022-10-16T08:13:10;8.82;;;3.78;;
21095;SDS011;10706;49.036;12.112;2022-10-16T08:15:36;10.70;;;3.83;;
21095;SDS011;10706;49.036;12.112;2022-10-16T08:18:02;10.98;;;3.90;;
21095;SDS011;10706;49.036;12.112;2022-10-16T08:20:30;9.30;;;3.67;;
21095;SDS011;10706;49.036;12.112;2022-10-16T08:22:58;8.82;;;4.07;;
21095;SDS011;10706;49.036;12.112;2022-10-16T08:25:25;13.07;;;3.63;;
21095;SDS011;10706;49.036;12.112;2022-10-16T08:27:53;7.82;;;3.40;;
21095;SDS011;10706;49.036;12.112;2022-10-16T08:30:19;8.30;;;3.47;;
21095;SDS011;10706;49.036;12.112;2022-10-16T08:32:47;9.27;;;3.53;;
21095;SDS011;10706;49.036;12.112;2022-10-16T08:35:13;8.93;;;3.53;;
21095;SDS011;10706;49.036;12.112;2022-10-16T08:37:40;8.20;;;3.78;;
21095;SDS011;10706;49.036;12.112;2022-10-16T08:40:06;6.40;;;3.17;;
21095;SDS011;10706;49.036;12.112;2022-10-16T08:51:31;13.75;;;3.38;;
21095;SDS011;10706;49.036;12.112;2022-10-16T08:54:12;8.63;;;3.45;;
21095;SDS011;10706;49.036;12.112;2022-10-16T08:56:53;7.28;;;3.50;;
21095;SDS011;10706;49.036;12.112;2022-10-16T08:59:21;7.28;;;3.08;;
21095;SDS011;10706;49.036;12.112;2022-10-16T09:01:47;8.13;;;3.67;;
21095;SDS011;10706;49.036;12.112;2022-10-16T09:10:10;10.30;;;3.13;;
21095;SDS011;10706;49.036;12.112;2022-10-16T09:13:23;8.07;;;3.30;;
21095;SDS011;10706;49.036;12.112;2022-10-16T09:16:26;7.97;;;3.08;;
21095;SDS011;10706;49.036;12.112;2022-10-16T09:19:04;6.07;;;2.95;;
21095;SDS011;10706;49.036;12.112;2022-10-16T09:21:47;7.82;;;3.17;;
21095;SDS011;10706;49.036;12.112;2022-10-16T09:24:15;4.93;;;2.60;;
21095;SDS011;10706;49.036;12.112;2022-10-16T09:26:44;9.52;;;3.10;;
21095;SDS011;10706;49.036;12.112;2022-10-16T09:29:11;6.70;;;2.88;;
21095;SDS011;10706;49.036;12.112;2022-10-16T09:31:42;6.20;;;2.63;;
21095;SDS011;10706;49.036;12.112;2022-10-16T09:34:20;6.95;;;3.05;;
21095;SDS011;10706;49.036;12.112;2022-10-16T09:36:58;11.18;;;2.70;;
21095;SDS011;10706;49.036;12.112;2022-10-16T09:39:27;5.47;;;2.33;;
21095;SDS011;10706;49.036;12.112;2022-10-16T09:41:53;8.43;;;2.50;;
21095;SDS011;10706;49.036;12.112;2022-10-16T09:44:23;4.38;;;2.15;;
21095;SDS011;10706;49.036;12.112;2022-10-16T09:47:10;5.50;;;3.30;;
21095;SDS011;10706;49.036;12.112;2022-10-16T09:52:27;7.13;;;2.47;;
21095;SDS011;10706;49.036;12.112;2022-10-16T09:54:59;5.68;;;2.38;;
21095;SDS011;10706;49.036;12.112;2022-10-16T09:57:37;5.60;;;2.20;;
21095;SDS011;10706;49.036;12.112;2022-10-16T10:00:17;6.50;;;2.67;;
21095;SDS011;10706;49.036;12.112;2022-10-16T10:02:44;4.45;;;2.33;;
21095;SDS011;10706;49.036;12.112;2022-10-16T10:05:47;8.55;;;2.40;;
21095;SDS011;10706;49.036;12.112;2022-10-16T10:08:04;5.55;;;2.42;;
21095;SDS011;10706;49.036;12.112;2022-10-16T10:10:39;8.70;;;2.35;;
21095;SDS011;10706;49.036;12.112;2022-10-16T10:13:17;6.28;;;2.40;;
21095;SDS011;10706;49.036;12.112;2022-10-16T10:15:45;10.40;;;2.63;;
21095;SDS011;10706;49.036;12.112;2022-10-16T10:18:15;5.97;;;2.75;;
21095;SDS011;10706;49.036;12.112;2022-10-16T10:20:58;10.60;;;2.33;;
21095;SDS011;10706;49.036;12.112;2022-10-16T10:23:26;8.82;;;2.55;;
21095;SDS011;10706;49.036;12.112;2022-10-16T10:31:13;7.88;;;2.13;;
21095;SDS011;10706;49.036;12.112;2022-10-16T10:33:57;5.22;;;2.08;;
21095;SDS011;10706;49.036;12.112;2022-10-16T10:36:48;8.82;;;2.50;;
21095;SDS011;10706;49.036;12.112;2022-10-16T10:39:32;7.00;;;2.40;;
21095;SDS011;10706;49.036;12.112;2022-10-16T10:42:29;5.13;;;1.92;;
21095;SDS011;10706;49.036;12.112;2022-10-16T10:48:10;5.90;;;2.20;;
21095;SDS011;10706;49.036;12.112;2022-10-16T10:50:57;7.90;;;2.28;;
21095;SDS011;10706;49.036;12.112;2022-10-16T10:56:49;5.95;;;1.95;;
21095;SDS011;10706;49.036;12.112;2022-10-16T11:02:32;4.60;;;2.00;;
21095;SDS011;10706;49.036;12.112;2022-10-16T11:08:34;6.35;;;2.05;;
21095;SDS011;10706;49.036;12.112;2022-10-16T11:11:20;6.93;;;2.15;;
21095;SDS011;10706;49.036;12.112;2022-10-16T11:14:11;4.78;;;1.92;;
21095;SDS011;10706;49.036;12.112;2022-10-16T11:19:55;4.18;;;1.92;;
21095;SDS011;10706;49.036;12.112;2022-10-16T11:22:37;2.80;;;1.80;;
21095;SDS011;10706;49.036;12.112;2022-10-16T11:25:14;4.40;;;2.00;;
21095;SDS011;10706;49.036;12.112;2022-10-16T11:33:42;9.38;;;1.90;;
21095;SDS011;10706;49.036;12.112;2022-10-16T11:36:17;5.15;;;2.10;;
21095;SDS011;10706;49.036;12.112;2022-10-16T11:39:03;3.55;;;1.70;;
21095;SDS011;10706;49.036;12.112;2022-10-16T11:46:59;2.30;;;1.42;;
21095;SDS011;10706;49.036;12.112;2022-10-16T11:49:47;5.88;;;2.03;;
21095;SDS011;10706;49.036;12.112;2022-10-16T11:55:14;3.13;;;1.60;;
21095;SDS011;10706;49.036;12.112;2022-10-16T11:57:47;2.53;;;1.63;;
21095;SDS011;10706;49.036;12.112;2022-10-16T12:00:20;3.92;;;1.60;;
21095;SDS011;10706;49.036;12.112;2022-10-16T12:02:55;3.53;;;1.67;;
21095;SDS011;10706;49.036;12.112;2022-10-16T12:08:48;4.15;;;1.60;;
21095;SDS011;10706;49.036;12.112;2022-10-16T12:11:35;4.70;;;1.60;;
21095;SDS011;10706;49.036;12.112;2022-10-16T12:14:04;4.95;;;1.70;;
21095;SDS011;10706;49.036;12.112;2022-10-16T12:16:32;6.45;;;1.40;;
21095;SDS011;10706;49.036;12.112;2022-10-16T12:21:41;4.93;;;1.70;;
21095;SDS011;10706;49.036;12.112;2022-10-16T12:24:50;5.68;;;1.70;;
21095;SDS011;10706;49.036;12.112;2022-10-16T12:27:03;5.20;;;1.63;;
21095;SDS011;10706;49.036;12.112;2022-10-16T12:29:38;4.88;;;1.85;;
21095;SDS011;10706;49.036;12.112;2022-10-16T12:35:04;4.20;;;1.60;;
21095;SDS011;10706;49.036;12.112;2022-10-16T12:37:42;4.80;;;1.50;;
21095;SDS011;10706;49.036;12.112;2022-10-16T12:40:14;3.38;;;1.40;;
21095;SDS011;10706;49.036;12.112;2022-10-16T12:43:11;4.30;;;1.42;;
21095;SDS011;10706;49.036;12.112;2022-10-16T12:46:22;4.72;;;1.60;;
21095;SDS011;10706;49.036;12.112;2022-10-16T12:49:04;6.30;;;1.67;;
21095;SDS011;10706;49.036;12.112;2022-10-16T12:51:40;1.98;;;1.42;;
21095;SDS011;10706;49.036;12.112;2022-10-16T12:54:22;3.13;;;1.42;;
21095;SDS011;10706;49.036;12.112;2022-10-16T13:00:02;5.00;;;2.00;;
21095;SDS011;10706;49.036;12.112;2022-10-16T13:03:17;3.85;;;1.80;;
21095;SDS011;10706;49.036;12.112;2022-10-16T13:12:28;3.30;;;1.60;;
21095;SDS011;10706;49.036;12.112;2022-10-16T13:26:46;6.28;;;1.70;;
21095;SDS011;10706;49.036;12.112;2022-10-16T13:30:24;4.03;;;1.52;;
21095;SDS011;10706;49.036;12.112;2022-10-16T13:35:48;3.90;;;1.65;;
21095;SDS011;10706;49.036;12.112;2022-10-16T13:38:21;4.80;;;1.45;;
21095;SDS011;10706;49.036;12.112;2022-10-16T13:46:14;5.70;;;2.00;;
21095;SDS011;10706;49.036;12.112;2022-10-16T13:48:55;5.50;;;1.38;;
21095;SDS011;10706;49.036;12.112;2022-10-16T13:51:26;2.58;;;1.60;;
21095;SDS011;10706;49.036;12.112;2022-10-16T13:53:54;8.52;;;1.90;;
21095;SDS011;10706;49.036;12.112;2022-10-16T13:56:26;6.30;;;1.77;;
21095;SDS011;10706;49.036;12.112;2022-10-16T13:58:58;2.20;;;1.38;;
21095;SDS011;10706;49.036;12.112;2022-10-16T14:01:31;2.30;;;1.42;;
21095;SDS011;10706;49.036;12.112;2022-10-16T14:04:08;6.22;;;1.55;;
21095;SDS011;10706;49.036;12.112;2022-10-16T14:06:45;3.75;;;1.50;;
21095;SDS011;10706;49.036;12.112;2022-10-16T14:09:27;3.95;;;1.70;;
21095;SDS011;10706;49.036;12.112;2022-10-16T14:12:02;3.63;;;1.70;;
21095;SDS011;10706;49.036;12.112;2022-10-16T14:14:43;3.33;;;1.60;;
21095;SDS011;10706;49.036;12.112;2022-10-16T14:19:49;3.33;;;2.03;;
21095;SDS011;10706;49.036;12.112;2022-10-16T14:22:40;5.80;;;1.90;;
21095;SDS011;10706;49.036;12.112;2022-10-16T14:27:57;7.97;;;1.75;;
21095;SDS011;10706;49.036;12.112;2022-10-16T14:30:49;5.95;;;2.00;;
21095;SDS011;10706;49.036;12.112;2022-10-16T14:36:05;3.17;;;1.67;;
21095;SDS011;10706;49.036;12.112;2022-10-16T14:38:48;4.28;;;1.88;;
21095;SDS011;10706;49.036;12.112;2022-10-16T14:41:32;10.10;;;1.70;;
21095;SDS011;10706;49.036;12.112;2022-10-16T14:44:12;4.22;;;2.08;;
21095;SDS011;10706;49.036;12.112;2022-10-16T14:46:40;6.80;;;2.75;;
21095;SDS011;10706;49.036;12.112;2022-10-16T14:51:40;5.25;;;2.17;;
21095;SDS011;10706;49.036;12.112;2022-10-16T14:54:09;6.43;;;2.25;;
21095;SDS011;10706;49.036;12.112;2022-10-16T14:56:47;4.90;;;2.05;;
21095;SDS011;10706;49.036;12.112;2022-10-16T14:59:37;7.65;;;2.13;;
21095;SDS011;10706;49.036;12.112;2022-10-16T15:02:29;5.57;;;2.17;;
21095;SDS011;10706;49.036;12.112;2022-10-16T15:05:18;5.88;;;2.40;;
21095;SDS011;10706;49.036;12.112;2022-10-16T15:07:51;10.48;;;2.50;;
21095;SDS011;10706;49.036;12.112;2022-10-16T15:10:19;6.10;;;2.40;;
21095;SDS011;10706;49.036;12.112;2022-10-16T15:12:51;4.32;;;2.10;;
21095;SDS011;10706;49.036;12.112;2022-10-16T15:17:46;5.18;;;2.28;;
21095;SDS011;10706;49.036;12.112;2022-10-16T15:20:12;9.40;;;2.47;;
21095;SDS011;10706;49.036;12.112;2022-10-16T15:22:38;4.03;;;2.00;;
21095;SDS011;10706;49.036;12.112;2022-10-16T15:25:17;5.35;;;2.20;;
21095;SDS011;10706;49.036;12.112;2022-10-16T15:28:20;4.75;;;2.42;;
21095;SDS011;10706;49.036;12.112;2022-10-16T15:30:51;5.57;;;2.38;;
21095;SDS011;10706;49.036;12.112;2022-10-16T15:33:20;6.70;;;2.30;;
21095;SDS011;10706;49.036;12.112;2022-10-16T15:35:53;7.00;;;2.63;;
21095;SDS011;10706;49.036;12.112;2022-10-16T15:38:20;5.72;;;2.40;;
21095;SDS011;10706;49.036;12.112;2022-10-16T15:40:47;9.50;;;2.88;;
21095;SDS011;10706;49.036;12.112;2022-10-16T15:43:14;4.68;;;2.35;;
21095;SDS011;10706;49.036;12.112;2022-10-16T15:45:40;8.52;;;2.80;;
21095;SDS011;10706;49.036;12.112;2022-10-16T15:48:06;8.93;;;2.78;;
21095;SDS011;10706;49.036;12.112;2022-10-16T15:50:38;9.00;;;3.10;;
21095;SDS011;10706;49.036;12.112;2022-10-16T15:53:04;8.50;;;3.00;;
21095;SDS011;10706;49.036;12.112;2022-10-16T15:55:30;6.78;;;3.00;;
21095;SDS011;10706;49.036;12.112;2022-10-16T15:57:56;7.97;;;3.10;;
21095;SDS011;10706;49.036;12.112;2022-10-16T16:00:22;11.50;;;3.38;;
21095;SDS011;10706;49.036;12.112;2022-10-16T16:02:51;7.28;;;3.33;;
21095;SDS011;10706;49.036;12.112;2022-10-16T16:05:18;8.23;;;3.40;;
21095;SDS011;10706;49.036;12.112;2022-10-16T16:07:45;10.05;;;3.70;;
21095;SDS011;10706;49.036;12.112;2022-10-16T16:10:11;9.25;;;3.55;;
21095;SDS011;10706;49.036;12.112;2022-10-16T16:12:37;10.88;;;3.30;;
21095;SDS011;10706;49.036;12.112;2022-10-16T16:15:04;7.88;;;3.50;;
21095;SDS011;10706;49.036;12.112;2022-10-16T16:17:32;10.55;;;3.80;;
21095;SDS011;10706;49.036;12.112;2022-10-16T16:20:02;8.38;;;3.42;;
21095;SDS011;10706;49.036;12.112;2022-10-16T16:22:30;10.95;;;3.80;;
21095;SDS011;10706;49.036;12.112;2022-10-16T16:24:55;10.05;;;3.53;;
21095;SDS011;10706;49.036;12.112;2022-10-16T16:27:21;14.88;;;3.70;;
21095;SDS011;10706;49.036;12.112;2022-10-16T16:29:49;10.18;;;3.95;;
21095;SDS011;10706;49.036;12.112;2022-10-16T16:32:15;10.35;;;3.83;;
21095;SDS011;10706;49.036;12.112;2022-10-16T16:34:41;10.15;;;3.85;;
21095;SDS011;10706;49.036;12.112;2022-10-16T16:37:07;10.85;;;3.95;;
21095;SDS011;10706;49.036;12.112;2022-10-16T16:39:33;10.93;;;3.90;;
21095;SDS011;10706;49.036;12.112;2022-10-16T16:41:58;11.32;;;3.97;;
21095;SDS011;10706;49.036;12.112;2022-10-16T16:44:24;11.85;;;3.92;;
21095;SDS011;10706;49.036;12.112;2022-10-16T16:46:51;10.13;;;4.13;;
21095;SDS011;10706;49.036;12.112;2022-10-16T16:49:17;16.02;;;5.07;;